Time;durP1;ratioP1;P1;durP2;ratioP2;P2;SDS_P1;SDS_P2;PMS_P1;PMS_P2;Temp;Humidity;BMP_temperature;BMP_pressure;BME280_temperature;BME280_humidity;BME280_pressure;Samples;Min_cycle;Max_cycle;Signal;HPM_P1;HPM_P2
2022/06/03 00:01:27;;;;;;;;;4.00;3.00;;;;;20.79;33.79;101248.72;5065664;28;45309;-49
2022/06/03 00:04:23;;;;;;;;;4.00;3.00;;;;;20.78;34.06;101247.00;5061670;28;45327;-48
2022/06/03 00:07:16;;;;;;;;;3.00;3.00;;;;;20.76;33.61;101239.03;5055111;28;45471;-48
2022/06/03 00:09:44;;;;;;;;;3.33;3.00;;;;;20.75;33.99;101241.88;5061912;28;45491;-50
2022/06/03 00:12:18;;;;;;;;;3.67;3.67;;;;;20.71;33.73;101237.72;5064219;28;45827;-49
2022/06/03 00:15:08;;;;;;;;;3.33;3.33;;;;;20.67;34.14;101246.03;5054250;28;45212;-49
2022/06/03 00:17:40;;;;;;;;;3.33;3.00;;;;;20.64;34.08;101242.78;5044909;28;45356;-51
2022/06/03 00:20:17;;;;;;;;;5.00;4.00;;;;;20.61;33.75;101238.50;5047676;28;46141;-50
2022/06/03 00:22:58;;;;;;;;;3.00;3.00;;;;;20.56;33.77;101229.91;5063702;28;45446;-49
2022/06/03 00:25:23;;;;;;;;;2.33;2.33;;;;;20.53;34.13;101235.56;5056891;28;45936;-50
2022/06/03 00:28:09;;;;;;;;;2.00;2.00;;;;;20.51;34.33;101234.84;5054980;28;45556;-51
2022/06/03 00:30:53;;;;;;;;;5.00;3.67;;;;;20.49;33.87;101228.72;5058371;28;45350;-50
2022/06/03 00:33:40;;;;;;;;;4.00;3.67;;;;;20.47;34.20;101228.00;5066201;28;45466;-51
2022/06/03 00:36:45;;;;;;;;;4.00;2.33;;;;;20.47;33.89;101228.00;5044101;28;45541;-49
2022/06/03 00:39:41;;;;;;;;;3.00;3.00;;;;;20.47;34.13;101228.00;4981671;28;45355;-49
2022/06/03 00:42:29;;;;;;;;;3.00;3.00;;;;;20.46;34.25;101239.78;5064801;28;45701;-49
2022/06/03 00:45:01;;;;;;;;;2.67;2.67;;;;;20.46;34.19;101235.22;5068210;28;45252;-50
2022/06/03 00:48:03;;;;;;;;;3.33;3.33;;;;;20.45;34.50;101233.50;5053074;28;45373;-49
2022/06/03 00:50:43;;;;;;;;;4.00;4.00;;;;;20.47;34.10;101234.25;5060564;28;45473;-50
2022/06/03 00:53:28;;;;;;;;;3.67;3.00;;;;;20.48;34.12;101244.06;5059023;28;45454;-49
2022/06/03 00:56:17;;;;;;;;;4.00;4.00;;;;;20.48;34.60;101244.06;5021134;28;45524;-50
2022/06/03 00:58:52;;;;;;;;;3.00;3.00;;;;;20.50;34.23;101243.94;5059889;28;45685;-50
2022/06/03 01:01:28;;;;;;;;;3.33;3.33;;;;;20.51;34.70;101248.38;5042486;28;45974;-49
2022/06/03 01:03:56;;;;;;;;;2.67;2.67;;;;;20.46;34.38;101245.19;5051272;28;47098;-49
2022/06/03 01:06:52;;;;;;;;;2.33;2.00;;;;;20.46;34.13;101245.19;5052817;28;45364;-52
2022/06/03 01:09:39;;;;;;;;;2.33;2.33;;;;;20.45;34.43;101246.19;5056168;28;45339;-48
2022/06/03 01:12:41;;;;;;;;;3.33;3.33;;;;;20.43;33.94;101242.78;5061172;28;45489;-49
2022/06/03 01:15:28;;;;;;;;;3.00;3.00;;;;;20.39;34.47;101239.47;5046424;28;45339;-49
2022/06/03 01:18:09;;;;;;;;;3.00;3.00;;;;;20.37;34.34;101236.03;5053124;28;45589;-51
2022/06/03 01:20:39;;;;;;;;;3.00;3.00;;;;;20.33;34.50;101238.13;5042887;28;45415;-50
2022/06/03 01:23:26;;;;;;;;;3.00;3.00;;;;;20.29;34.25;101233.97;5042678;28;45517;-50
2022/06/03 01:26:26;;;;;;;;;3.00;2.00;;;;;20.26;34.33;101236.94;5058621;28;47083;-50
2022/06/03 01:28:52;;;;;;;;;6.00;3.00;;;;;20.22;34.37;101229.22;5051223;28;45442;-49
2022/06/03 01:31:55;;;;;;;;;4.67;4.67;;;;;20.20;34.54;101226.66;5055504;28;45328;-49
2022/06/03 01:34:39;;;;;;;;;4.00;3.00;;;;;20.17;34.56;101221.50;5043119;28;45719;-49
2022/06/03 01:37:22;;;;;;;;;3.00;3.00;;;;;20.14;34.64;101211.84;5058501;28;45394;-49
2022/06/03 01:39:51;;;;;;;;;3.33;3.33;;;;;20.15;34.37;101212.66;5032689;28;45284;-49
2022/06/03 01:42:50;;;;;;;;;3.00;3.00;;;;;20.14;34.69;101217.22;5057981;28;45451;-49
2022/06/03 01:45:27;;;;;;;;;2.33;2.33;;;;;20.13;34.63;101207.41;5041987;28;45685;-49
2022/06/03 01:48:30;;;;;;;;;3.67;3.00;;;;;20.10;34.66;101209.50;5057646;28;46197;-51
2022/06/03 01:51:10;;;;;;;;;1.67;1.67;;;;;20.09;34.74;101215.88;5045543;28;45320;-49
2022/06/03 01:53:56;;;;;;;;;3.67;3.67;;;;;20.10;34.76;101209.50;5060195;28;45548;-53
2022/06/03 01:56:45;;;;;;;;;3.33;3.33;;;;;20.08;35.09;101204.22;5054491;28;45272;-51
2022/06/03 01:59:10;;;;;;;;;4.00;4.00;;;;;20.07;35.10;101202.50;5043762;28;46145;-50
2022/06/03 02:02:00;;;;;;;;;3.33;2.67;;;;;20.06;35.12;101203.50;5048592;28;45682;-54
2022/06/03 02:04:34;;;;;;;;;3.00;3.00;;;;;20.05;34.97;101200.94;5050345;28;45308;-50
2022/06/03 02:07:06;;;;;;;;;2.33;1.00;;;;;20.01;34.86;101197.63;5059530;28;45280;-51
2022/06/03 02:09:56;;;;;;;;;2.33;2.33;;;;;19.96;35.02;101198.03;5062691;28;45340;-51
2022/06/03 02:12:51;;;;;;;;;5.00;3.00;;;;;19.90;34.89;101189.59;5057660;28;45533;-51
2022/06/03 02:15:23;;;;;;;;;2.67;2.67;;;;;19.87;34.97;101189.81;5047288;28;45620;-51
2022/06/03 02:18:13;;;;;;;;;4.00;4.00;;;;;19.82;34.95;101180.28;5063220;28;45306;-50
2022/06/03 02:21:13;;;;;;;;;3.67;3.00;;;;;19.77;35.43;101179.75;5062417;28;46094;-52
2022/06/03 02:23:44;;;;;;;;;3.33;3.00;;;;;19.73;35.35;101166.69;5059824;28;45473;-51
2022/06/03 02:26:57;;;;;;;;;3.67;3.67;;;;;19.65;35.61;101157.34;5053927;28;45378;-50
2022/06/03 02:32:44;;;;;;;;;2.00;2.00;;;;;19.61;35.41;101157.75;5045617;28;45702;-50
2022/06/03 02:35:14;;;;;;;;;3.00;3.00;;;;;19.60;35.65;101153.34;5059868;28;45278;-50
2022/06/03 02:38:27;;;;;;;;;2.67;2.67;;;;;19.59;35.67;101157.03;5043358;28;45489;-49
2022/06/03 02:41:17;;;;;;;;;3.33;2.67;;;;;19.55;35.81;101155.56;5016587;28;45498;-50
2022/06/03 02:44:21;;;;;;;;;3.33;3.00;;;;;19.49;35.80;101152.38;5060503;28;45245;-50
2022/06/03 02:47:07;;;;;;;;;3.67;3.67;;;;;19.47;35.86;101150.78;4983711;28;45455;-48
2022/06/03 02:49:41;;;;;;;;;4.67;3.33;;;;;19.46;36.07;101149.06;5056175;28;45403;-49
2022/06/03 02:52:21;;;;;;;;;4.33;4.33;;;;;19.44;35.90;101145.66;5059612;28;45473;-51
2022/06/03 02:55:11;;;;;;;;;4.00;4.00;;;;;19.40;36.22;101146.88;5055429;28;45689;-49
2022/06/03 02:57:55;;;;;;;;;4.33;4.33;;;;;19.34;35.93;101137.47;5053552;28;45855;-49
2022/06/03 03:01:01;;;;;;;;;3.00;3.00;;;;;19.31;36.24;101141.25;5055196;28;45446;-49
2022/06/03 03:03:45;;;;;;;;;4.67;4.67;;;;;19.27;36.21;101139.81;5039222;28;45332;-50
2022/06/03 03:06:29;;;;;;;;;5.00;5.00;;;;;19.25;36.37;101155.25;5059763;28;45294;-51
2022/06/03 03:08:57;;;;;;;;;5.00;4.00;;;;;19.22;36.34;101142.00;5056715;28;45483;-50
2022/06/03 03:11:45;;;;;;;;;2.67;2.67;;;;;19.21;36.23;101144.84;5058309;28;45466;-50
2022/06/03 03:14:16;;;;;;;;;3.00;3.00;;;;;19.20;36.29;101148.50;5047905;28;45411;-51
2022/06/03 03:17:09;;;;;;;;;2.33;2.33;;;;;19.17;36.45;101144.22;5058329;28;45501;-49
2022/06/03 03:19:38;;;;;;;;;4.33;3.67;;;;;19.18;36.55;101125.22;5054914;28;45384;-50
2022/06/03 03:22:54;;;;;;;;;4.67;3.33;;;;;19.20;36.45;101127.78;5044026;28;45736;-50
2022/06/03 03:25:41;;;;;;;;;3.00;3.00;;;;;19.23;36.49;101137.47;4968083;28;45965;-49
2022/06/03 03:28:33;;;;;;;;;4.33;4.33;;;;;19.22;36.54;101136.63;5031683;28;46214;-50
2022/06/03 03:31:11;;;;;;;;;3.67;2.67;;;;;19.19;36.40;101144.97;5050708;28;45582;-49
2022/06/03 03:34:10;;;;;;;;;2.00;2.00;;;;;19.16;36.42;101148.78;5057893;28;45389;-50
2022/06/03 03:37:02;;;;;;;;;5.00;5.00;;;;;19.13;36.56;101150.84;5053637;28;45319;-52
2022/06/03 03:39:47;;;;;;;;;4.67;4.67;;;;;19.15;36.78;101146.19;5037282;28;46506;-48
2022/06/03 03:42:31;;;;;;;;;6.00;3.33;;;;;19.16;36.66;101142.50;5060531;28;45428;-52
2022/06/03 03:45:16;;;;;;;;;3.00;3.00;;;;;19.15;36.78;101135.41;5045875;28;45458;-50
2022/06/03 03:47:47;;;;;;;;;3.00;3.00;;;;;19.16;36.71;101138.00;5045672;28;45388;-49
2022/06/03 03:50:42;;;;;;;;;4.67;4.33;;;;;19.12;36.69;101133.81;5054908;28;45319;-50
2022/06/03 03:53:29;;;;;;;;;4.00;4.00;;;;;19.06;36.91;101128.94;5023378;28;45510;-49
2022/06/03 03:56:18;;;;;;;;;4.00;4.00;;;;;19.05;36.93;101129.91;5056452;28;45292;-50
2022/06/03 03:58:56;;;;;;;;;4.67;3.33;;;;;19.01;37.11;101133.84;5059466;28;45634;-51
2022/06/03 04:01:33;;;;;;;;;4.67;4.00;;;;;18.98;37.25;101128.66;5062226;28;46668;-50
2022/06/03 04:04:23;;;;;;;;;3.67;3.67;;;;;18.98;37.08;101136.75;5059298;28;45443;-49
2022/06/03 04:07:02;;;;;;;;;7.00;4.00;;;;;18.96;37.25;101134.19;5058032;28;45380;-51
2022/06/03 04:09:37;;;;;;;;;3.00;3.00;;;;;18.96;37.07;101139.59;5049962;28;45383;-51
2022/06/03 04:12:21;;;;;;;;;4.33;4.33;;;;;18.97;37.16;101153.94;5056517;28;45494;-49
2022/06/03 04:15:05;;;;;;;;;5.00;3.67;;;;;18.94;37.16;101152.34;5059118;28;45230;-51
2022/06/03 04:18:15;;;;;;;;;3.00;3.00;;;;;18.93;37.53;101149.75;5059610;28;45669;-52
2022/06/03 04:21:16;;;;;;;;;4.33;4.33;;;;;18.93;37.43;101147.94;5051583;28;45289;-50
2022/06/03 04:23:47;;;;;;;;;5.00;5.00;;;;;18.94;37.50;101148.78;5052235;28;46371;-49
2022/06/03 04:26:25;;;;;;;;;4.33;4.00;;;;;18.94;37.43;101152.34;5054309;28;45470;-50
2022/06/03 04:29:34;;;;;;;;;3.67;3.67;;;;;18.91;37.81;101138.25;5055752;28;45463;-52
2022/06/03 04:32:36;;;;;;;;;4.00;3.33;;;;;18.83;37.67;101131.59;5054105;28;45704;-50
2022/06/03 04:35:12;;;;;;;;;3.00;3.00;;;;;18.79;38.16;101132.81;5050947;28;45332;-50
2022/06/03 04:38:04;;;;;;;;;5.00;5.00;;;;;18.80;38.07;101128.31;5046583;28;45446;-49
2022/06/03 04:40:35;;;;;;;;;4.00;4.00;;;;;18.76;38.28;101135.75;5052743;28;45354;-51
2022/06/03 04:43:35;;;;;;;;;3.00;3.00;;;;;18.75;38.24;101142.13;5059342;28;45474;-51
2022/06/03 04:46:04;;;;;;;;;3.67;3.67;;;;;18.73;38.49;101141.38;5060740;28;46155;-49
2022/06/03 04:48:48;;;;;;;;;4.67;4.00;;;;;18.72;38.37;101150.47;5047199;28;45259;-51
2022/06/03 04:51:48;;;;;;;;;6.33;5.67;;;;;18.72;38.21;101150.47;5054313;28;45347;-49
2022/06/03 04:54:51;;;;;;;;;6.00;4.00;;;;;18.71;38.83;101158.66;5049134;28;45364;-51
2022/06/03 04:57:41;;;;;;;;;4.33;4.00;;;;;18.72;38.95;101163.94;5059024;28;46087;-50
2022/06/03 05:00:20;;;;;;;;;6.00;6.00;;;;;18.74;38.85;101158.41;5054315;28;45492;-52
2022/06/03 05:02:51;;;;;;;;;5.00;5.00;;;;;18.73;38.60;101151.31;5041368;28;45368;-49
2022/06/03 05:05:49;;;;;;;;;8.67;7.00;;;;;18.69;39.03;101164.16;5060066;28;45882;-49
2022/06/03 05:08:43;;;;;;;;;7.00;7.00;;;;;18.68;38.87;101155.22;5059348;28;46150;-49
2022/06/03 05:11:25;;;;;;;;;7.00;5.67;;;;;18.71;39.18;101145.16;5064314;28;45750;-50
2022/06/03 05:14:08;;;;;;;;;6.00;6.00;;;;;18.76;39.17;101145.66;5043271;28;45780;-49
2022/06/03 05:16:52;;;;;;;;;4.33;4.33;;;;;18.78;38.69;101138.34;5058797;28;45478;-50
2022/06/03 05:19:50;;;;;;;;;6.00;6.00;;;;;18.73;39.43;101132.44;5064571;28;46222;-52
2022/06/03 05:22:31;;;;;;;;;3.00;3.00;;;;;18.71;39.13;101121.81;5064831;28;45409;-54
2022/06/03 05:25:21;;;;;;;;;5.00;5.00;;;;;18.68;39.40;101114.81;5058387;28;45355;-51
2022/06/03 05:28:13;;;;;;;;;4.67;4.00;;;;;18.68;39.57;101116.63;5053180;28;45367;-50
2022/06/03 05:30:57;;;;;;;;;3.00;3.00;;;;;18.72;39.87;101128.03;5053001;28;46138;-51
2022/06/03 05:33:23;;;;;;;;;6.00;6.00;;;;;18.75;39.68;101136.75;5057274;28;45438;-47
2022/06/03 05:36:16;;;;;;;;;5.33;4.33;;;;;18.80;39.81;101145.31;5064229;28;45334;-49
2022/06/03 05:39:20;;;;;;;;;5.00;5.00;;;;;18.86;39.62;101146.66;5045011;28;45374;-50
2022/06/03 05:42:27;;;;;;;;;7.33;5.33;;;;;18.92;39.61;101151.59;4957984;28;46455;-51
2022/06/03 05:44:52;;;;;;;;;6.33;4.00;;;;;18.96;39.33;101136.88;5060965;28;45419;-49
2022/06/03 05:47:29;;;;;;;;;7.33;5.00;;;;;18.99;39.69;101138.47;5065811;28;45269;-50
2022/06/03 05:50:15;;;;;;;;;6.00;4.00;;;;;19.03;39.91;101131.00;5049190;28;45438;-50
2022/06/03 05:52:43;;;;;;;;;5.00;3.00;;;;;19.01;39.54;101129.28;5042889;28;45680;-49
2022/06/03 05:55:27;;;;;;;;;6.00;4.33;;;;;19.01;39.95;101134.69;5063297;28;45873;-50
2022/06/03 05:58:18;;;;;;;;;6.67;5.00;;;;;19.01;39.66;101137.38;5066824;28;45393;-50
2022/06/03 06:01:09;;;;;;;;;5.67;5.00;;;;;18.99;39.92;101128.56;5069517;28;46013;-53
2022/06/03 06:03:47;;;;;;;;;6.00;4.00;;;;;19.02;39.96;101130.16;5055446;28;47193;-51
2022/06/03 06:06:25;;;;;;;;;7.00;4.67;;;;;19.05;40.03;101135.31;5061542;28;45421;-52
2022/06/03 06:09:00;;;;;;;;;4.00;4.00;;;;;19.08;40.23;101136.88;5061799;28;45772;-49
2022/06/03 06:12:09;;;;;;;;;5.33;5.33;;;;;19.08;40.05;101132.34;5064010;28;45649;-50
2022/06/03 06:14:50;;;;;;;;;9.33;5.00;;;;;19.09;40.51;101131.38;5057794;28;45667;-51
2022/06/03 06:17:43;;;;;;;;;8.00;7.00;;;;;19.13;40.49;101134.69;5060771;28;45535;-50
2022/06/03 06:20:37;;;;;;;;;6.00;6.00;;;;;19.13;40.48;101140.91;5061982;28;45523;-49
2022/06/03 06:23:28;;;;;;;;;5.67;5.33;;;;;19.10;40.33;101141.19;5055523;28;45613;-53
2022/06/03 06:26:14;;;;;;;;;5.33;5.33;;;;;19.13;40.81;101137.38;5060188;28;45601;-50
2022/06/03 06:28:57;;;;;;;;;6.00;5.67;;;;;19.14;40.51;101139.94;5054012;28;45443;-52
2022/06/03 06:32:13;;;;;;;;;5.00;4.33;;;;;19.20;40.63;101135.03;5051408;28;45312;-51
2022/06/03 06:35:32;;;;;;;;;8.00;7.00;;;;;19.18;40.80;101129.78;5021026;28;45368;-50
2022/06/03 06:38:19;;;;;;;;;7.00;6.00;;;;;19.16;40.73;101140.69;4943511;28;45506;-51
2022/06/03 06:40:58;;;;;;;;;5.00;5.00;;;;;19.13;40.89;101137.38;5040991;28;46809;-51
2022/06/03 06:43:47;;;;;;;;;6.00;5.67;;;;;19.11;41.11;101134.81;5070277;28;45276;-52
2022/06/03 06:46:15;;;;;;;;;5.00;5.00;;;;;19.10;41.11;101133.09;5068311;28;45274;-52
2022/06/03 06:48:53;;;;;;;;;6.00;6.00;;;;;19.09;40.91;101128.66;5068600;28;46611;-50
2022/06/03 06:51:30;;;;;;;;;6.00;6.00;;;;;19.09;41.46;101131.38;5062546;28;45423;-49
2022/06/03 06:54:04;;;;;;;;;8.33;8.00;;;;;19.12;41.34;101125.72;5069157;28;45510;-51
2022/06/03 06:56:31;;;;;;;;;6.00;6.00;;;;;19.13;41.61;101113.13;5049077;28;45771;-50
2022/06/03 06:59:00;;;;;;;;;7.00;7.00;;;;;19.16;41.54;101112.84;5043718;28;46131;-57
2022/06/03 07:01:35;;;;;;;;;9.00;7.67;;;;;19.17;41.68;101106.47;5041887;28;45423;-54
2022/06/03 07:04:02;;;;;;;;;4.67;4.67;;;;;19.17;41.64;101109.19;5048042;28;45359;-51
2022/06/03 07:06:48;;;;;;;;;6.67;5.00;;;;;19.21;41.73;101107.09;5032087;28;45461;-56
2022/06/03 07:09:24;;;;;;;;;8.33;8.33;;;;;19.27;41.71;101104.75;5059205;28;46285;-57
2022/06/03 07:11:57;;;;;;;;;6.00;6.00;;;;;19.37;41.66;101107.53;5051301;28;45294;-56
2022/06/03 07:14:29;;;;;;;;;7.00;7.00;;;;;19.41;41.82;101105.44;5054690;28;45499;-57
2022/06/03 07:20:31;;;;;;;;;8.67;5.67;;;;;19.60;41.86;101094.84;5072320;28;45762;-57
2022/06/03 07:23:06;;;;;;;;;6.67;5.00;;;;;19.74;41.93;101103.63;5052625;28;45297;-52
2022/06/03 07:25:47;;;;;;;;;9.33;7.33;;;;;19.82;41.84;101103.88;5062988;28;45347;-49
2022/06/03 07:28:29;;;;;;;;;7.67;6.67;;;;;19.92;41.51;101106.63;5064816;28;45429;-50
2022/06/03 07:31:02;;;;;;;;;7.00;5.67;;;;;19.97;41.44;101112.50;5064343;28;45366;-52
2022/06/03 07:33:31;;;;;;;;;6.33;6.33;;;;;20.03;41.31;101111.97;5042882;28;45432;-51
2022/06/03 07:36:11;;;;;;;;;10.67;9.00;;;;;20.08;41.59;101112.44;5056227;28;45418;-49
2022/06/03 07:38:49;;;;;;;;;6.33;5.67;;;;;20.13;41.11;101112.91;5053042;28;45523;-54
2022/06/03 07:41:18;;;;;;;;;6.33;6.00;;;;;20.15;41.27;101127.13;5052598;28;46385;-50
2022/06/03 07:44:08;;;;;;;;;4.67;4.67;;;;;20.19;41.26;101116.06;5055609;28;45434;-49
2022/06/03 07:46:42;;;;;;;;;7.33;7.33;;;;;20.23;40.97;101122.91;5058768;28;45360;-50
2022/06/03 07:49:07;;;;;;;;;9.67;8.67;;;;;20.28;41.03;101123.38;5038285;28;45467;-49
2022/06/03 07:51:43;;;;;;;;;7.33;7.33;;;;;20.30;41.03;101119.53;5040704;28;45928;-51
2022/06/03 07:54:18;;;;;;;;;8.33;7.67;;;;;20.35;41.00;101124.56;5045838;28;45373;-53
2022/06/03 07:56:43;;;;;;;;;6.67;6.67;;;;;20.37;41.42;101130.69;5041049;28;45590;-51
2022/06/03 07:59:17;;;;;;;;;5.33;5.33;;;;;20.41;41.39;101133.97;5047036;28;61575;-52
2022/06/03 08:01:44;;;;;;;;;5.00;5.00;;;;;20.46;41.44;101145.25;5023840;28;46222;-50
2022/06/03 08:04:30;;;;;;;;;7.00;6.67;;;;;20.49;41.21;101144.97;5062209;28;45355;-49
2022/06/03 08:12:31;;;;;;;;;6.00;6.00;;;;;20.58;41.94;101137.91;5059087;28;45710;-51
2022/06/03 08:14:57;;;;;;;;;8.00;6.33;;;;;20.61;40.97;101140.34;5058161;28;45484;-53
2022/06/03 08:17:25;;;;;;;;;8.67;8.67;;;;;20.62;41.22;101145.63;5052355;28;45364;-53
2022/06/03 08:19:53;;;;;;;;;7.67;7.33;;;;;20.61;41.18;101149.31;5064187;28;45525;-50
2022/06/03 08:22:22;;;;;;;;;5.33;5.33;;;;;20.64;41.42;101150.91;5044626;28;47009;-50
2022/06/03 08:24:58;;;;;;;;;5.67;5.67;;;;;20.67;41.39;101134.41;5039972;28;45472;-49
2022/06/03 08:27:31;;;;;;;;;8.33;7.00;;;;;20.72;41.01;101137.59;5039690;28;64575;-49
2022/06/03 08:30:02;;;;;;;;;7.67;6.67;;;;;20.75;41.47;101131.91;5058329;28;45447;-48
2022/06/03 08:32:39;;;;;;;;;8.33;7.00;;;;;20.82;41.61;101130.38;5062213;28;46375;-48
2022/06/03 08:35:11;;;;;;;;;6.00;6.00;;;;;20.90;41.49;101121.59;5054094;28;45554;-47
2022/06/03 08:37:45;;;;;;;;;10.67;8.67;;;;;21.03;41.52;101117.78;5057450;28;45869;-51
2022/06/03 08:40:20;;;;;;;;;6.33;6.33;;;;;21.14;40.99;101110.41;5051697;28;45439;-50
2022/06/03 08:43:33;;;;;;;;;8.33;8.33;;;;;21.33;40.99;101100.66;5050392;28;45443;-51
2022/06/03 08:46:21;;;;;;;;;8.67;8.33;;;;;21.62;40.73;101098.00;5041742;28;45532;-51
2022/06/03 08:48:50;;;;;;;;;8.67;7.00;;;;;21.82;40.77;101098.00;5039731;28;45462;-50
2022/06/03 08:51:37;;;;;;;;;12.00;8.33;;;;;22.01;41.00;101101.72;5040099;28;45713;-49
2022/06/03 08:54:07;;;;;;;;;10.33;9.00;;;;;22.17;41.07;101106.53;5053853;28;45497;-49
2022/06/03 08:56:35;;;;;;;;;10.00;9.00;;;;;22.27;40.20;101099.22;5038142;28;45513;-52
2022/06/03 08:59:06;;;;;;;;;6.00;6.00;;;;;22.39;40.07;101102.66;5049681;28;45494;-49
2022/06/03 09:01:36;;;;;;;;;13.00;11.00;;;;;22.53;40.66;101101.31;5047528;28;45447;-49
2022/06/03 09:04:01;;;;;;;;;8.33;8.33;;;;;22.69;39.98;101095.28;5052894;28;46169;-51
2022/06/03 09:06:36;;;;;;;;;8.00;7.33;;;;;22.86;39.86;101093.63;5058052;28;45595;-49
2022/06/03 09:09:08;;;;;;;;;34.33;21.67;;;;;22.93;40.21;101092.88;5059646;28;45434;-49
2022/06/03 09:11:33;;;;;;;;;11.33;8.67;;;;;23.03;39.53;101094.69;5054945;28;45366;-50
2022/06/03 09:14:05;;;;;;;;;7.67;7.00;;;;;23.10;39.71;101091.22;5057645;28;45443;-48
2022/06/03 09:16:32;;;;;;;;;8.00;8.00;;;;;23.14;39.44;101083.66;5033605;28;45703;-50
2022/06/03 09:19:07;;;;;;;;;9.33;7.00;;;;;23.18;39.83;101078.75;5037603;28;45486;-52
2022/06/03 09:21:34;;;;;;;;;15.00;8.33;;;;;23.22;39.73;101077.44;5050359;28;45661;-51
2022/06/03 09:24:14;;;;;;;;;6.33;6.33;;;;;23.34;39.73;101087.09;5031830;28;46466;-50
2022/06/03 09:26:44;;;;;;;;;13.00;13.00;;;;;23.43;39.61;101079.91;5040457;28;45448;-50
2022/06/03 09:29:12;;;;;;;;;12.00;10.00;;;;;23.51;39.35;101079.13;5039804;28;45580;-53
2022/06/03 09:31:39;;;;;;;;;9.67;7.67;;;;;23.51;39.83;101088.09;5041466;28;45543;-49
2022/06/03 09:34:06;;;;;;;;;14.00;10.00;;;;;23.48;39.87;101085.72;5062481;28;46049;-52
2022/06/03 09:36:33;;;;;;;;;9.67;9.67;;;;;23.48;39.68;101088.44;5059403;28;45981;-50
2022/06/03 09:39:05;;;;;;;;;10.67;8.33;;;;;23.51;39.98;101093.53;5057888;28;45485;-49
2022/06/03 09:41:36;;;;;;;;;9.00;8.00;;;;;23.58;39.75;101104.63;5054596;28;45459;-51
2022/06/03 09:44:05;;;;;;;;;26.67;18.67;;;;;23.75;39.72;101097.50;5057247;28;45861;-50
2022/06/03 09:46:32;;;;;;;;;9.67;9.33;;;;;24.08;39.53;101095.94;5037372;28;45315;-49
2022/06/03 09:48:58;;;;;;;;;10.67;7.67;;;;;24.42;39.51;101099.75;5045826;28;45498;-49
2022/06/03 09:51:55;;;;;;;;;9.33;8.33;;;;;24.71;39.21;101098.56;5033638;28;45410;-51
2022/06/03 09:54:13;;;;;;;;;9.00;8.00;;;;;24.87;39.01;101098.63;5057423;28;45276;-53
2022/06/03 09:56:39;;;;;;;;;24.00;24.00;;;;;25.15;38.66;101100.25;5065676;28;45700;-49
2022/06/03 09:59:05;;;;;;;;;28.67;27.00;;;;;25.47;38.33;101107.69;5038844;28;45375;-51
2022/06/03 10:01:31;;;;;;;;;16.00;12.67;;;;;25.85;37.91;101116.25;5038983;28;45528;-51
2022/06/03 10:04:01;;;;;;;;;12.33;9.67;;;;;26.25;37.10;101121.88;5057635;28;45460;-50
2022/06/03 10:06:43;;;;;;;;;11.00;9.33;;;;;26.53;35.81;101143.28;5054657;28;45317;-51
2022/06/03 10:14:36;;;;;;;;;11.33;11.33;;;;;27.27;35.31;101121.22;5060022;28;45868;-52
2022/06/03 10:17:01;;;;;;;;;17.33;17.33;;;;;27.38;35.17;101120.00;5056896;28;72125;-49
2022/06/03 10:19:27;;;;;;;;;11.00;10.67;;;;;27.50;35.21;101113.09;5062662;28;45527;-52
2022/06/03 10:21:54;;;;;;;;;13.67;9.67;;;;;27.71;34.44;101103.38;5065346;28;45470;-51
2022/06/03 10:24:30;;;;;;;;;24.00;21.00;;;;;27.75;34.83;101106.59;5064996;28;46963;-53
2022/06/03 10:27:00;;;;;;;;;12.33;12.33;;;;;27.66;34.54;101103.91;5056270;28;45613;-50
2022/06/03 10:29:26;;;;;;;;;11.67;11.67;;;;;27.50;35.35;101098.59;5061240;28;45405;-51
2022/06/03 10:32:00;;;;;;;;;12.67;10.33;;;;;27.30;34.89;101100.88;5048764;28;45795;-52
2022/06/03 10:34:27;;;;;;;;;12.00;11.00;;;;;27.11;34.95;101096.75;5060022;28;45699;-53
2022/06/03 10:36:55;;;;;;;;;12.67;12.00;;;;;26.94;34.79;101082.34;5053071;28;45426;-52
2022/06/03 10:39:23;;;;;;;;;14.00;11.00;;;;;26.76;35.17;101090.78;5065011;28;45447;-53
2022/06/03 10:41:54;;;;;;;;;8.00;7.67;;;;;26.63;35.95;101089.41;5058395;28;45518;-53
2022/06/03 10:44:25;;;;;;;;;18.67;14.67;;;;;26.51;35.13;101099.00;5058518;28;45371;-54
2022/06/03 10:47:04;;;;;;;;;15.00;15.00;;;;;26.46;35.80;101094.06;5057608;28;45844;-51
2022/06/03 10:49:37;;;;;;;;;11.00;10.67;;;;;26.50;36.09;101092.69;5063151;28;45395;-54
2022/06/03 11:03:27;;;;;;;;;12.00;12.00;;;;;26.38;36.57;101089.47;5056367;28;45466;-53
2022/06/03 11:05:53;;;;;;;;;12.00;11.33;;;;;26.36;36.89;101088.81;5055650;28;45362;-50
2022/06/03 11:08:19;;;;;;;;;16.00;15.33;;;;;26.36;36.58;101088.81;5059531;28;45541;-49
2022/06/03 11:10:56;;;;;;;;;14.67;14.67;;;;;26.41;36.62;101096.44;5058798;28;46267;-50
2022/06/03 11:13:28;;;;;;;;;14.00;12.67;;;;;26.44;37.54;101100.72;5055448;28;45712;-52
2022/06/03 11:15:54;;;;;;;;;10.67;10.67;;;;;26.44;37.60;101093.41;5058721;28;46210;-50
2022/06/03 11:18:37;;;;;;;;;13.33;13.33;;;;;26.43;37.04;101108.03;5067012;28;45477;-50
2022/06/03 11:21:27;;;;;;;;;15.33;13.00;;;;;26.40;37.28;101113.84;5058839;28;69464;-53
2022/06/03 11:23:54;;;;;;;;;14.67;14.00;;;;;26.32;37.47;101122.03;5053776;28;45471;-52
2022/06/03 11:26:19;;;;;;;;;13.67;13.67;;;;;26.12;38.15;101127.84;5055653;28;46126;-53
2022/06/03 11:29:00;;;;;;;;;14.00;14.00;;;;;25.86;38.46;101128.81;5054690;28;45601;-49
2022/06/03 11:31:33;;;;;;;;;17.67;17.67;;;;;25.73;38.04;101133.94;5059717;28;45555;-50
2022/06/03 11:34:09;;;;;;;;;13.00;13.00;;;;;25.62;38.70;101126.06;5044394;28;45359;-52
2022/06/03 11:36:41;;;;;;;;;16.00;14.67;;;;;25.54;38.72;101130.50;5035615;28;46344;-49
2022/06/03 11:39:12;;;;;;;;;16.00;13.67;;;;;25.40;39.69;101129.28;5049218;28;45493;-49
2022/06/03 11:41:42;;;;;;;;;12.67;12.00;;;;;25.23;39.99;101131.06;5044701;28;45803;-50
2022/06/03 11:44:13;;;;;;;;;10.33;10.33;;;;;25.06;40.59;101116.56;5061779;28;45635;-50
2022/06/03 11:47:00;;;;;;;;;17.00;12.33;;;;;24.96;40.07;101131.31;5043215;28;45515;-53
2022/06/03 11:49:25;;;;;;;;;13.00;13.00;;;;;24.87;40.17;101119.53;5034253;28;45604;-50
2022/06/03 11:51:52;;;;;;;;;15.33;15.33;;;;;24.81;40.63;101134.66;5057458;28;63221;-48
2022/06/03 11:54:21;;;;;;;;;15.67;15.67;;;;;24.73;41.52;101126.44;5058123;28;45432;-50
2022/06/03 11:56:47;;;;;;;;;12.67;12.67;;;;;24.65;41.26;101132.69;5041963;28;46220;-52
2022/06/03 11:59:18;;;;;;;;;14.00;14.00;;;;;24.52;42.13;101138.53;5062811;28;45612;-51
2022/06/03 12:01:49;;;;;;;;;11.33;11.33;;;;;24.41;42.53;101127.94;5061844;28;45536;-49
2022/06/03 12:04:17;;;;;;;;;13.00;11.00;;;;;24.39;42.14;101143.53;5064691;28;45416;-52
2022/06/03 12:07:00;;;;;;;;;12.33;11.67;;;;;24.31;42.97;101132.59;5060831;28;45373;-52
2022/06/03 12:09:45;;;;;;;;;9.00;9.00;;;;;24.23;43.13;101133.41;5063288;28;45750;-53
2022/06/03 12:15:51;;;;;;;;;8.00;7.33;;;;;24.00;44.43;101133.91;5059605;28;46184;-53
2022/06/03 12:18:37;;;;;;;;;11.67;7.33;;;;;23.89;44.63;101134.94;5053700;28;46183;-49
2022/06/03 12:21:34;;;;;;;;;9.00;9.00;;;;;23.83;44.40;101134.72;5057833;28;45473;-51
2022/06/03 12:24:32;;;;;;;;;9.00;9.00;;;;;23.82;44.54;101131.16;5059102;28;45891;-53
2022/06/03 12:27:01;;;;;;;;;8.33;8.00;;;;;23.80;44.76;101133.19;5063853;28;45732;-48
2022/06/03 12:29:36;;;;;;;;;7.67;7.67;;;;;23.76;45.15;101129.06;5041619;28;46325;-52
2022/06/03 12:32:13;;;;;;;;;9.00;7.00;;;;;23.73;45.23;101137.53;5045441;28;45399;-53
2022/06/03 12:34:39;;;;;;;;;9.00;9.00;;;;;23.70;45.26;101135.13;5039667;28;45461;-52
2022/06/03 12:37:27;;;;;;;;;9.00;7.67;;;;;23.66;45.55;101137.28;5045151;28;45745;-49
2022/06/03 12:39:58;;;;;;;;;9.00;9.00;;;;;23.57;47.04;101138.19;5057085;28;46381;-49
2022/06/03 12:42:26;;;;;;;;;7.33;7.33;;;;;23.45;48.13;101141.16;5057054;28;45974;-54
2022/06/03 12:45:01;;;;;;;;;7.00;5.00;;;;;23.29;50.21;101141.81;5061567;28;46871;-49
2022/06/03 12:47:32;;;;;;;;;7.33;6.33;;;;;23.05;51.98;101138.75;5064598;28;45363;-51
2022/06/03 12:50:03;;;;;;;;;9.00;8.33;;;;;22.83;51.88;101132.75;5062581;28;46233;-51
2022/06/03 12:52:28;;;;;;;;;9.67;9.00;;;;;22.71;54.45;101142.94;5057559;28;45442;-52